createdAt,value
2019-05-29T00:01:42.469Z,9.33
2019-05-29T00:04:14.338Z,7.93
2019-05-29T00:06:46.188Z,9.67
2019-05-29T00:09:16.681Z,10.97
2019-05-29T00:11:47.287Z,13.43
2019-05-29T00:14:25.767Z,11.90
2019-05-29T00:16:50.315Z,14.77
2019-05-29T00:19:20.937Z,16.00
2019-05-29T00:21:51.524Z,13.27
2019-05-29T00:24:23.189Z,18.27
2019-05-29T00:26:53.782Z,19.57
2019-05-29T00:29:25.560Z,17.27
2019-05-29T00:31:56.014Z,18.30
2019-05-29T00:34:26.545Z,21.87
2019-05-29T00:36:57.098Z,19.37
2019-05-29T00:39:27.722Z,21.93
2019-05-29T00:41:58.220Z,20.33
2019-05-29T00:44:34.238Z,20.23
2019-05-29T00:47:04.412Z,17.60
2019-05-29T00:49:35.202Z,19.40
2019-05-29T00:52:08.005Z,17.73
2019-05-29T00:54:38.916Z,17.83
2019-05-29T00:57:10.791Z,17.57
2019-05-29T00:59:42.577Z,19.27
2019-05-29T01:02:13.766Z,12.20
2019-05-29T01:04:47.883Z,16.20
2019-05-29T01:07:18.448Z,16.60
2019-05-29T01:09:48.981Z,18.57
2019-05-29T01:12:21.287Z,15.70
2019-05-29T01:14:52.032Z,14.90
2019-05-29T01:17:24.052Z,17.07
2019-05-29T01:19:55.570Z,14.93
2019-05-29T01:22:26.100Z,12.93
2019-05-29T01:24:57.305Z,11.67
2019-05-29T01:27:27.851Z,13.67
2019-05-29T01:29:58.293Z,16.10
2019-05-29T01:32:29.279Z,13.63
2019-05-29T01:34:59.759Z,18.63
2019-05-29T01:37:30.255Z,17.67
2019-05-29T01:40:01.040Z,13.07
2019-05-29T01:42:31.777Z,17.30
2019-05-29T01:45:07.858Z,13.37
2019-05-29T01:47:34.489Z,14.17
2019-05-29T01:50:05.501Z,15.40
2019-05-29T01:52:37.054Z,14.83
2019-05-29T01:55:10.315Z,17.17
2019-05-29T01:57:41.828Z,18.20
2019-05-29T02:00:14.190Z,14.50
2019-05-29T02:02:47.125Z,15.00
2019-05-29T02:05:17.886Z,15.63
2019-05-29T02:07:48.497Z,16.40
2019-05-29T02:10:20.278Z,16.30
2019-05-29T02:12:50.941Z,16.70
2019-05-29T02:15:31.694Z,14.17
2019-05-29T02:17:55.397Z,15.80
2019-05-29T02:20:27.133Z,15.63
2019-05-29T02:23:00.209Z,16.43
2019-05-29T02:25:30.663Z,16.57
2019-05-29T02:28:01.237Z,19.60
2019-05-29T02:30:31.706Z,15.70
2019-05-29T02:33:02.163Z,19.70
2019-05-29T02:35:32.623Z,18.60
2019-05-29T02:38:04.141Z,19.70
2019-05-29T02:40:34.801Z,17.53
2019-05-29T02:43:05.268Z,20.83
2019-05-29T02:45:52.889Z,24.07
2019-05-29T02:48:08.021Z,26.50
2019-05-29T02:50:40.608Z,22.07
2019-05-29T02:53:11.171Z,19.27
2019-05-29T02:55:41.771Z,20.73
2019-05-29T02:58:12.304Z,17.00
2019-05-29T03:00:56.276Z,15.07
2019-05-29T03:03:29.406Z,16.87
2019-05-29T03:05:59.185Z,19.23
2019-05-29T03:08:32.495Z,24.67
2019-05-29T03:11:02.494Z,20.93
2019-05-29T03:13:33.803Z,20.10
2019-05-29T03:16:11.281Z,24.23
2019-05-29T03:18:36.949Z,23.00
2019-05-29T03:21:07.525Z,21.70
2019-05-29T03:23:38.032Z,23.93
2019-05-29T03:26:11.789Z,20.90
2019-05-29T03:28:42.917Z,20.23
2019-05-29T03:31:13.414Z,23.33
2019-05-29T03:33:48.638Z,19.20
2019-05-29T03:36:16.698Z,20.20
2019-05-29T03:38:47.119Z,21.50
2019-05-29T03:41:17.625Z,17.07
2019-05-29T03:43:48.229Z,26.43
2019-05-29T03:46:31.511Z,18.93
2019-05-29T03:48:51.150Z,20.53
2019-05-29T03:51:21.626Z,18.17
2019-05-29T03:53:52.177Z,17.07
2019-05-29T03:56:22.661Z,22.23
2019-05-29T03:58:53.286Z,20.10
2019-05-29T04:01:23.845Z,23.20
2019-05-29T04:03:55.418Z,19.73
2019-05-29T04:06:28.915Z,18.20
2019-05-29T04:08:59.611Z,15.83
2019-05-29T04:11:33.241Z,21.13
2019-05-29T04:14:04.104Z,17.53
2019-05-29T04:16:52.363Z,20.50
2019-05-29T04:19:07.818Z,17.53
2019-05-29T04:21:39.325Z,20.50
2019-05-29T04:24:09.801Z,19.43
2019-05-29T04:26:41.480Z,20.27
2019-05-29T04:29:14.165Z,25.20
2019-05-29T04:31:44.910Z,21.33
2019-05-29T04:34:15.468Z,18.80
2019-05-29T04:36:45.962Z,25.40
2019-05-29T04:39:16.577Z,19.40
2019-05-29T04:41:49.833Z,20.17
2019-05-29T04:44:20.279Z,23.27
2019-05-29T04:47:09.537Z,20.77
2019-05-29T04:49:26.719Z,25.53
2019-05-29T04:51:57.336Z,16.17
2019-05-29T04:54:33.185Z,20.07
2019-05-29T04:57:04.005Z,22.90
2019-05-29T04:59:35.025Z,18.63
2019-05-29T05:02:05.725Z,18.30
2019-05-29T05:04:37.325Z,21.63
2019-05-29T05:07:07.908Z,20.33
2019-05-29T05:09:39.525Z,26.13
2019-05-29T05:12:10.140Z,22.53
2019-05-29T05:14:40.700Z,22.37
2019-05-29T05:17:25.265Z,23.70
2019-05-29T05:19:43.306Z,26.93
2019-05-29T05:22:13.904Z,21.27
2019-05-29T05:24:44.395Z,24.20
2019-05-29T05:27:14.897Z,28.13
2019-05-29T05:29:46.445Z,25.70
2019-05-29T05:32:18.161Z,21.70
2019-05-29T05:34:48.654Z,19.40
2019-05-29T05:37:19.238Z,26.27
2019-05-29T05:39:49.709Z,23.37
2019-05-29T05:42:20.273Z,20.47
2019-05-29T05:44:50.828Z,21.80
2019-05-29T05:47:21.428Z,19.77
2019-05-29T05:49:51.950Z,24.30
2019-05-29T05:52:22.430Z,22.67
2019-05-29T05:54:54.040Z,19.90
2019-05-29T05:57:24.600Z,21.23
2019-05-29T05:59:55.057Z,15.93
2019-05-29T06:02:25.595Z,15.17
2019-05-29T06:04:56.141Z,11.33
2019-05-29T06:07:26.769Z,10.43
2019-05-29T06:09:57.304Z,17.93
2019-05-29T06:12:27.785Z,15.53
2019-05-29T06:14:59.412Z,18.40
2019-05-29T06:17:29.931Z,11.73
2019-05-29T06:20:00.574Z,14.27
2019-05-29T06:22:31.109Z,9.53
2019-05-29T06:25:01.603Z,8.87
2019-05-29T06:27:33.631Z,12.90
2019-05-29T06:30:04.553Z,17.40
2019-05-29T06:32:35.398Z,9.67
2019-05-29T06:35:07.136Z,13.80
2019-05-29T06:37:37.730Z,9.40
2019-05-29T06:40:08.765Z,10.37
2019-05-29T06:42:39.875Z,7.33
2019-05-29T06:45:10.529Z,9.60
2019-05-29T06:47:42.649Z,7.13
2019-05-29T06:50:13.431Z,7.47
2019-05-29T06:52:43.976Z,5.17
2019-05-29T06:55:14.578Z,9.13
2019-05-29T06:57:45.157Z,5.40
2019-05-29T07:00:34.049Z,5.60
2019-05-29T07:02:48.145Z,5.30
2019-05-29T07:05:18.674Z,12.87
2019-05-29T07:07:49.281Z,11.60
2019-05-29T07:10:19.967Z,5.30
2019-05-29T07:12:50.493Z,7.63
2019-05-29T07:15:21.124Z,5.87
2019-05-29T07:17:51.680Z,8.27
2019-05-29T07:20:22.400Z,10.33
2019-05-29T07:22:53.051Z,8.67
2019-05-29T07:25:23.640Z,7.67
2019-05-29T07:27:56.031Z,7.67
2019-05-29T07:30:26.672Z,9.30
2019-05-29T07:32:59.188Z,9.73
2019-05-29T07:35:29.399Z,9.20
2019-05-29T07:38:00.064Z,7.53
2019-05-29T07:40:31.768Z,7.60
2019-05-29T07:43:02.859Z,5.57
2019-05-29T07:45:33.496Z,13.60
2019-05-29T07:48:04.153Z,4.90
2019-05-29T07:50:34.686Z,8.57
2019-05-29T07:53:05.224Z,6.67
2019-05-29T07:55:35.877Z,8.17
2019-05-29T07:58:06.505Z,8.73
2019-05-29T08:00:56.380Z,5.57
2019-05-29T08:03:09.346Z,3.97
2019-05-29T08:05:41.101Z,7.03
2019-05-29T08:08:12.161Z,7.20
2019-05-29T08:10:43.436Z,7.23
2019-05-29T08:13:14.131Z,7.40
2019-05-29T08:15:57.602Z,9.63
2019-05-29T08:18:17.027Z,6.27
2019-05-29T08:20:48.159Z,7.30
2019-05-29T08:23:18.916Z,10.47
2019-05-29T08:25:49.711Z,7.43
2019-05-29T08:28:20.312Z,17.50
2019-05-29T08:30:55.802Z,8.50
2019-05-29T08:33:22.948Z,9.57
2019-05-29T08:35:59.936Z,9.37
2019-05-29T08:38:25.585Z,9.47
2019-05-29T08:40:56.123Z,7.80
2019-05-29T08:43:26.632Z,5.10
2019-05-29T08:45:57.105Z,5.90
2019-05-29T08:48:27.598Z,6.07
2019-05-29T08:50:58.218Z,5.40
2019-05-29T08:53:28.857Z,5.67
2019-05-29T08:55:59.343Z,3.20
2019-05-29T08:58:29.914Z,5.10
2019-05-29T09:01:00.404Z,6.60
2019-05-29T09:03:31.094Z,4.37
2019-05-29T09:06:08.874Z,17.07
2019-05-29T09:08:33.788Z,8.43
2019-05-29T09:11:04.280Z,5.13
2019-05-29T09:13:34.885Z,6.23
2019-05-29T09:16:05.444Z,13.00
2019-05-29T09:18:36.040Z,5.77
2019-05-29T09:21:06.645Z,8.57
2019-05-29T09:23:37.071Z,6.23
2019-05-29T09:26:15.921Z,3.23
2019-05-29T09:28:39.793Z,5.70
2019-05-29T09:31:10.366Z,4.63
2019-05-29T09:33:40.996Z,10.23
2019-05-29T09:36:11.572Z,5.60
2019-05-29T09:38:42.122Z,8.60
2019-05-29T09:41:12.637Z,10.03
2019-05-29T09:43:57.632Z,9.10
2019-05-29T09:46:17.100Z,10.07
2019-05-29T09:48:50.125Z,9.57
2019-05-29T09:51:21.524Z,8.93
2019-05-29T09:53:52.546Z,8.13
2019-05-29T09:56:24.817Z,8.57
2019-05-29T09:58:56.564Z,6.07
2019-05-29T10:01:27.675Z,11.30
2019-05-29T10:04:00.075Z,3.57
2019-05-29T10:06:30.282Z,4.70
2019-05-29T10:09:01.787Z,5.50
2019-05-29T10:11:34.083Z,9.00
2019-05-29T10:14:05.705Z,4.80
2019-05-29T10:16:36.155Z,7.57
2019-05-29T10:19:06.824Z,5.80
2019-05-29T10:21:40.471Z,2.80
2019-05-29T10:24:09.456Z,5.20
2019-05-29T10:26:40.024Z,9.27
2019-05-29T10:29:10.552Z,9.10
2019-05-29T10:31:42.135Z,7.37
2019-05-29T10:34:12.795Z,4.13
2019-05-29T10:36:46.868Z,7.20
2019-05-29T10:39:15.591Z,6.27
2019-05-29T10:41:46.733Z,8.17
2019-05-29T10:44:17.385Z,4.87
2019-05-29T10:46:51.548Z,6.30
2019-05-29T10:49:21.364Z,5.73
2019-05-29T10:52:05.631Z,4.60
2019-05-29T10:54:25.045Z,5.50
2019-05-29T10:56:55.514Z,9.37
2019-05-29T10:59:26.028Z,4.60
2019-05-29T11:01:56.497Z,5.83
2019-05-29T11:04:26.991Z,6.40
2019-05-29T11:06:57.524Z,5.40
2019-05-29T11:09:43.487Z,5.03
2019-05-29T11:12:00.185Z,12.40
2019-05-29T11:14:30.704Z,5.13
2019-05-29T11:17:01.176Z,2.73
2019-05-29T11:19:31.675Z,9.00
2019-05-29T11:22:22.882Z,5.27
2019-05-29T11:24:34.348Z,4.53
2019-05-29T11:27:04.960Z,4.77
2019-05-29T11:29:35.542Z,5.10
2019-05-29T11:32:06.176Z,4.80
2019-05-29T11:34:36.619Z,5.33
2019-05-29T11:37:07.360Z,8.40
2019-05-29T11:39:37.904Z,2.10
2019-05-29T11:42:24.217Z,3.20
2019-05-29T11:44:43.345Z,5.40
2019-05-29T11:47:13.810Z,2.00
2019-05-29T11:49:44.292Z,5.20
2019-05-29T11:52:24.369Z,5.17
2019-05-29T11:54:46.856Z,2.70
2019-05-29T11:57:17.442Z,5.43
2019-05-29T11:59:47.892Z,2.53
2019-05-29T12:02:18.503Z,3.50
2019-05-29T12:04:49.143Z,4.90
2019-05-29T12:07:19.716Z,5.57
2019-05-29T12:09:51.346Z,6.10
2019-05-29T12:12:22.080Z,2.20
2019-05-29T12:15:00.631Z,4.17
2019-05-29T12:17:24.707Z,4.60
2019-05-29T12:19:56.050Z,6.63
2019-05-29T12:22:26.809Z,2.20
2019-05-29T12:24:58.504Z,4.87
2019-05-29T12:27:31.639Z,2.57
2019-05-29T12:30:03.302Z,6.73
2019-05-29T12:32:34.014Z,4.97
2019-05-29T12:35:04.924Z,2.83
2019-05-29T12:37:35.527Z,3.30
2019-05-29T12:40:07.142Z,6.83
2019-05-29T12:42:38.317Z,4.07
2019-05-29T12:45:09.525Z,2.63
2019-05-29T12:47:40.284Z,5.17
2019-05-29T12:50:11.482Z,4.23
2019-05-29T12:52:42.095Z,3.83
2019-05-29T12:55:12.981Z,4.37
2019-05-29T12:57:43.428Z,1.57
2019-05-29T13:00:14.645Z,1.43
2019-05-29T13:02:45.055Z,5.07
2019-05-29T13:05:20.929Z,4.57
2019-05-29T13:07:51.635Z,5.63
2019-05-29T13:10:30.562Z,7.17
2019-05-29T13:13:01.308Z,1.40
2019-05-29T13:15:29.087Z,2.90
2019-05-29T13:18:05.306Z,4.17
2019-05-29T13:20:31.813Z,4.90
2019-05-29T13:23:03.631Z,3.90
2019-05-29T13:25:34.623Z,5.17
2019-05-29T13:28:06.132Z,2.07
2019-05-29T13:30:38.283Z,3.90
2019-05-29T13:33:09.251Z,6.50
2019-05-29T13:35:40.907Z,3.93
2019-05-29T13:38:11.359Z,3.77
2019-05-29T13:40:41.830Z,4.50
2019-05-29T13:43:15.743Z,5.23
2019-05-29T13:45:46.036Z,10.40
2019-05-29T13:48:17.555Z,6.27
2019-05-29T13:50:49.098Z,5.03
2019-05-29T13:53:19.647Z,7.80
2019-05-29T13:55:50.124Z,6.43
2019-05-29T13:58:20.984Z,6.07
2019-05-29T14:00:51.908Z,4.13
2019-05-29T14:03:22.972Z,3.77
2019-05-29T14:05:53.656Z,4.13
2019-05-29T14:08:25.248Z,5.77
2019-05-29T14:10:59.190Z,4.47
2019-05-29T14:13:29.708Z,7.33
2019-05-29T14:16:00.586Z,5.10
2019-05-29T14:18:31.564Z,7.13
2019-05-29T14:21:03.148Z,1.63
2019-05-29T14:23:39.630Z,4.27
2019-05-29T14:26:09.755Z,2.43
2019-05-29T14:28:41.401Z,2.80
2019-05-29T14:31:12.811Z,3.67
2019-05-29T14:33:44.358Z,2.73
2019-05-29T14:36:14.875Z,7.70
2019-05-29T14:38:45.469Z,5.37
2019-05-29T14:41:15.927Z,4.97
2019-05-29T14:43:46.552Z,3.20
2019-05-29T14:46:17.089Z,3.57
2019-05-29T14:48:47.653Z,7.47
2019-05-29T14:51:18.197Z,3.13
2019-05-29T14:53:48.757Z,4.13
2019-05-29T14:56:19.351Z,4.07
2019-05-29T14:58:49.910Z,4.50
2019-05-29T15:01:21.846Z,1.53
2019-05-29T15:03:52.511Z,1.30
2019-05-29T15:06:24.399Z,4.03
2019-05-29T15:08:55.033Z,2.67
2019-05-29T15:11:25.525Z,4.80
2019-05-29T15:13:56.013Z,3.20
2019-05-29T15:16:26.543Z,2.30
2019-05-29T15:18:58.855Z,4.73
2019-05-29T15:21:31.022Z,2.27
2019-05-29T15:24:02.681Z,11.07
2019-05-29T15:26:33.269Z,3.23
2019-05-29T15:29:06.024Z,4.67
2019-05-29T15:31:39.200Z,3.70
2019-05-29T15:34:10.298Z,2.60
2019-05-29T15:36:43.205Z,5.43
2019-05-29T15:39:16.873Z,3.77
2019-05-29T15:41:48.777Z,4.20
2019-05-29T15:44:20.994Z,5.77
2019-05-29T15:46:56.713Z,4.80
2019-05-29T15:49:36.299Z,4.50
2019-05-29T15:52:13.048Z,5.67
2019-05-29T15:54:52.386Z,5.67
2019-05-29T15:57:20.159Z,3.23
2019-05-29T15:59:55.836Z,5.03
2019-05-29T16:02:36.202Z,2.07
2019-05-29T16:05:15.614Z,5.83
2019-05-29T16:07:54.958Z,5.03
2019-05-29T16:10:24.967Z,6.27
2019-05-29T16:12:59.933Z,2.93
2019-05-29T16:15:34.722Z,2.93
2019-05-29T16:18:18.927Z,3.27
2019-05-29T16:20:43.804Z,8.17
2019-05-29T16:23:32.335Z,5.33
2019-05-29T16:25:50.800Z,5.53
2019-05-29T16:28:22.467Z,4.73
2019-05-29T16:30:56.153Z,4.83
2019-05-29T16:33:36.745Z,4.93
2019-05-29T16:36:12.754Z,4.77
2019-05-29T16:38:43.145Z,6.17
2019-05-29T16:41:17.909Z,4.43
2019-05-29T16:43:51.201Z,5.87
2019-05-29T16:46:25.537Z,4.43
2019-05-29T16:48:57.777Z,4.73
2019-05-29T16:51:28.333Z,5.73
2019-05-29T16:54:01.795Z,5.33
2019-05-29T16:56:37.417Z,5.43
2019-05-29T16:59:08.449Z,4.30
2019-05-29T17:01:47.854Z,7.13
2019-05-29T17:04:22.037Z,8.53
2019-05-29T17:06:54.192Z,8.53
2019-05-29T17:09:30.154Z,15.10
2019-05-29T17:12:03.961Z,7.80
2019-05-29T17:14:36.838Z,5.07
2019-05-29T17:17:08.415Z,4.67
2019-05-29T17:19:39.274Z,4.10
2019-05-29T17:22:10.829Z,4.07
2019-05-29T17:24:44.498Z,3.70
2019-05-29T17:27:17.055Z,8.90
2019-05-29T17:29:49.523Z,5.67
2019-05-29T17:32:21.128Z,5.60
2019-05-29T17:34:51.792Z,6.57
2019-05-29T17:37:23.145Z,5.87
2019-05-29T17:39:53.959Z,3.50
2019-05-29T17:42:26.999Z,4.73
2019-05-29T17:44:59.423Z,5.97
2019-05-29T17:47:33.382Z,5.77
2019-05-29T17:50:06.473Z,4.23
2019-05-29T17:52:43.705Z,11.33
2019-05-29T17:55:18.510Z,12.70
2019-05-29T17:57:54.835Z,4.10
2019-05-29T18:00:33.388Z,5.23
2019-05-29T18:03:07.535Z,4.70
2019-05-29T18:05:38.178Z,6.67
2019-05-29T18:08:09.232Z,5.77
2019-05-29T18:10:40.906Z,4.70
2019-05-29T18:13:11.764Z,6.10
2019-05-29T18:15:44.559Z,6.23
2019-05-29T18:18:15.136Z,7.20
2019-05-29T18:20:45.873Z,5.67
2019-05-29T18:23:18.099Z,5.07
2019-05-29T18:25:48.672Z,8.57
2019-05-29T18:28:19.946Z,5.80
2019-05-29T18:30:50.638Z,6.77
2019-05-29T18:33:22.703Z,9.33
2019-05-29T18:35:53.478Z,10.03
2019-05-29T18:38:26.636Z,9.87
2019-05-29T18:40:58.263Z,11.50
2019-05-29T18:43:29.094Z,8.23
2019-05-29T18:45:59.915Z,6.77
2019-05-29T18:48:32.544Z,7.13
2019-05-29T18:51:02.626Z,6.70
2019-05-29T18:53:33.245Z,6.73
2019-05-29T18:56:03.686Z,5.33
2019-05-29T18:58:34.278Z,6.23
2019-05-29T19:01:04.984Z,6.40
2019-05-29T19:03:35.588Z,8.03
2019-05-29T19:06:06.097Z,6.07
2019-05-29T19:08:36.705Z,8.20
2019-05-29T19:11:09.645Z,6.13
2019-05-29T19:13:40.353Z,12.40
2019-05-29T19:16:10.980Z,6.83
2019-05-29T19:18:41.455Z,7.83
2019-05-29T19:21:12.072Z,7.03
2019-05-29T19:23:44.289Z,7.10
2019-05-29T19:26:14.940Z,5.33
2019-05-29T19:28:45.439Z,6.67
2019-05-29T19:31:16.132Z,4.77
2019-05-29T19:33:54.905Z,6.70
2019-05-29T19:36:29.844Z,6.53
2019-05-29T19:39:00.995Z,8.40
2019-05-29T19:41:34.160Z,6.27
2019-05-29T19:44:07.093Z,6.03
2019-05-29T19:46:53.244Z,7.77
2019-05-29T19:49:09.966Z,7.67
2019-05-29T19:51:42.678Z,5.13
2019-05-29T19:54:13.213Z,9.60
2019-05-29T19:56:43.762Z,9.60
2019-05-29T19:59:14.203Z,6.60
2019-05-29T20:01:44.767Z,9.07
2019-05-29T20:04:15.239Z,8.90
2019-05-29T20:06:45.889Z,7.13
2019-05-29T20:09:16.400Z,11.90
2019-05-29T20:11:46.922Z,9.70
2019-05-29T20:14:17.684Z,11.87
2019-05-29T20:16:49.832Z,10.63
2019-05-29T20:19:20.434Z,9.93
2019-05-29T20:21:53.231Z,9.23
2019-05-29T20:24:25.268Z,11.53
2019-05-29T20:26:55.745Z,12.33
2019-05-29T20:29:27.534Z,10.20
2019-05-29T20:31:58.117Z,14.97
2019-05-29T20:34:28.732Z,13.63
2019-05-29T20:36:59.285Z,12.27
2019-05-29T20:39:33.000Z,9.07
2019-05-29T20:42:03.949Z,15.87
2019-05-29T20:44:36.666Z,9.60
2019-05-29T20:47:08.961Z,11.03
2019-05-29T20:49:40.137Z,12.20
2019-05-29T20:52:11.053Z,8.13
2019-05-29T20:54:41.850Z,8.23
2019-05-29T20:57:12.388Z,9.20
2019-05-29T20:59:42.873Z,10.73
2019-05-29T21:02:14.595Z,10.20
2019-05-29T21:04:45.154Z,9.53
2019-05-29T21:07:15.738Z,10.60
2019-05-29T21:09:46.261Z,9.67
2019-05-29T21:12:16.701Z,12.13
2019-05-29T21:14:47.207Z,13.23
2019-05-29T21:17:17.792Z,17.77
2019-05-29T21:19:48.309Z,15.63
2019-05-29T21:22:18.812Z,18.60
2019-05-29T21:25:01.259Z,18.30
2019-05-29T21:27:21.568Z,17.83
2019-05-29T21:29:52.137Z,20.10
2019-05-29T21:32:22.587Z,16.93
2019-05-29T21:34:53.144Z,20.83
2019-05-29T21:37:23.794Z,13.77
2019-05-29T21:39:54.357Z,12.93
2019-05-29T21:42:24.832Z,11.97
2019-05-29T21:44:55.392Z,12.20
2019-05-29T21:47:25.928Z,11.73
2019-05-29T21:49:56.501Z,9.00
2019-05-29T21:52:27.446Z,10.33
2019-05-29T21:54:59.218Z,10.10
2019-05-29T21:57:29.757Z,8.60
2019-05-29T22:00:00.282Z,14.43
2019-05-29T22:02:30.981Z,8.63
2019-05-29T22:05:03.985Z,10.60
2019-05-29T22:07:36.611Z,9.70
2019-05-29T22:10:07.425Z,7.00
2019-05-29T22:12:37.939Z,11.63
2019-05-29T22:15:08.568Z,10.87
2019-05-29T22:17:39.164Z,6.83
2019-05-29T22:20:09.672Z,6.13
2019-05-29T22:22:40.162Z,8.03
2019-05-29T22:25:10.818Z,11.93
2019-05-29T22:27:41.384Z,7.27
2019-05-29T22:30:11.964Z,7.83
2019-05-29T22:32:42.419Z,13.50
2019-05-29T22:35:13.198Z,12.43
2019-05-29T22:37:43.732Z,9.30
2019-05-29T22:40:14.442Z,7.93
2019-05-29T22:42:45.032Z,14.47
2019-05-29T22:45:16.015Z,12.40
2019-05-29T22:47:48.201Z,15.27
2019-05-29T22:50:19.798Z,10.50
2019-05-29T22:52:51.645Z,11.30
2019-05-29T22:55:22.556Z,9.40
2019-05-29T22:57:53.773Z,11.50
2019-05-29T23:00:24.778Z,11.23
2019-05-29T23:02:58.133Z,11.87
2019-05-29T23:05:29.502Z,12.90
2019-05-29T23:08:02.157Z,8.17
2019-05-29T23:10:33.120Z,12.10
2019-05-29T23:13:05.856Z,10.73
2019-05-29T23:15:36.386Z,11.13
2019-05-29T23:18:08.294Z,9.07
2019-05-29T23:20:38.878Z,10.67
2019-05-29T23:23:09.472Z,14.30
2019-05-29T23:25:39.938Z,8.53
2019-05-29T23:28:10.423Z,10.87
2019-05-29T23:30:40.949Z,11.00
2019-05-29T23:33:11.474Z,11.33
2019-05-29T23:35:42.263Z,10.30
2019-05-29T23:38:12.838Z,10.80
2019-05-29T23:40:43.660Z,14.70
2019-05-29T23:43:14.130Z,11.00
2019-05-29T23:45:44.787Z,11.40
2019-05-29T23:48:16.334Z,12.67
2019-05-29T23:50:46.865Z,14.50
2019-05-29T23:53:17.337Z,12.53
2019-05-29T23:55:47.882Z,13.80
2019-05-29T23:58:18.362Z,12.73
